createdAt,value
2018-08-12T00:00:34.505Z,1015.16
2018-08-12T00:01:34.483Z,1015.17
2018-08-12T00:02:34.418Z,1015.13
2018-08-12T00:03:34.377Z,1015.12
2018-08-12T00:04:34.336Z,1015.12
2018-08-12T00:05:43.284Z,1015.11
2018-08-12T00:06:34.267Z,1015.08
2018-08-12T00:07:34.226Z,1015.10
2018-08-12T00:08:34.207Z,1015.15
2018-08-12T00:09:34.148Z,1015.13
2018-08-12T00:10:34.136Z,1015.13
2018-08-12T00:11:34.060Z,1015.14
2018-08-12T00:12:34.022Z,1015.11
2018-08-12T00:13:33.992Z,1015.14
2018-08-12T00:14:33.940Z,1015.10
2018-08-12T00:15:33.933Z,1015.08
2018-08-12T00:16:33.872Z,1015.11
2018-08-12T00:17:33.829Z,1015.05
2018-08-12T00:18:33.786Z,1015.02
2018-08-12T00:19:33.743Z,1015.01
2018-08-12T00:20:33.728Z,1014.99
2018-08-12T00:21:33.676Z,1014.99
2018-08-12T00:22:33.627Z,1015.00
2018-08-12T00:23:33.586Z,1014.96
2018-08-12T00:24:33.542Z,1014.93
2018-08-12T00:25:33.504Z,1014.92
2018-08-12T00:26:33.483Z,1014.94
2018-08-12T00:27:33.434Z,1014.91
2018-08-12T00:28:33.391Z,1014.90
2018-08-12T00:29:33.355Z,1014.88
2018-08-12T00:30:33.338Z,1014.90
2018-08-12T00:31:33.278Z,1014.86
2018-08-12T00:32:33.236Z,1014.88
2018-08-12T00:33:33.185Z,1014.82
2018-08-12T00:34:33.157Z,1014.84
2018-08-12T00:35:33.140Z,1014.84
2018-08-12T00:36:33.078Z,1014.81
2018-08-12T00:37:33.028Z,1014.81
2018-08-12T00:38:32.985Z,1014.81
2018-08-12T00:39:32.956Z,1014.75
2018-08-12T00:40:32.934Z,1014.82
2018-08-12T00:41:32.884Z,1014.78
2018-08-12T00:42:32.837Z,1014.79
2018-08-12T00:43:32.791Z,1014.77
2018-08-12T00:44:32.749Z,1014.79
2018-08-12T00:45:43.342Z,1014.82
2018-08-12T00:46:32.680Z,1014.78
2018-08-12T00:47:32.635Z,1014.78
2018-08-12T00:48:32.594Z,1014.77
2018-08-12T00:49:32.551Z,1014.76
2018-08-12T00:50:32.532Z,1014.74
2018-08-12T00:51:32.476Z,1014.73
2018-08-12T00:52:32.443Z,1014.69
2018-08-12T00:53:32.387Z,1014.72
2018-08-12T00:54:32.349Z,1014.72
2018-08-12T00:55:32.329Z,1014.74
2018-08-12T00:56:32.274Z,1014.73
2018-08-12T00:57:32.237Z,1014.69
2018-08-12T00:58:32.204Z,1014.71
2018-08-12T00:59:32.157Z,1014.68
2018-08-12T01:00:32.150Z,1014.67
2018-08-12T01:01:32.068Z,1014.68
2018-08-12T01:02:32.029Z,1014.68
2018-08-12T01:03:31.988Z,1014.67
2018-08-12T01:04:41.883Z,1014.66
2018-08-12T01:05:31.913Z,1014.64
2018-08-12T01:06:31.870Z,1014.64
2018-08-12T01:07:31.835Z,1014.65
2018-08-12T01:08:31.803Z,1014.64
2018-08-12T01:09:31.801Z,1014.60
2018-08-12T01:10:31.720Z,1014.60
2018-08-12T01:11:31.674Z,1014.63
2018-08-12T01:12:31.633Z,1014.60
2018-08-12T01:13:31.595Z,1014.59
2018-08-12T01:14:31.574Z,1014.60
2018-08-12T01:15:31.517Z,1014.58
2018-08-12T01:16:31.483Z,1014.57
2018-08-12T01:17:31.439Z,1014.58
2018-08-12T01:18:31.401Z,1014.59
2018-08-12T01:19:31.379Z,1014.57
2018-08-12T01:20:31.326Z,1014.57
2018-08-12T01:21:31.282Z,1014.57
2018-08-12T01:22:31.240Z,1014.56
2018-08-12T01:23:31.210Z,1014.55
2018-08-12T01:24:31.181Z,1014.54
2018-08-12T01:25:31.117Z,1014.53
2018-08-12T01:26:31.077Z,1014.53
2018-08-12T01:27:31.040Z,1014.53
2018-08-12T01:28:31.002Z,1014.51
2018-08-12T01:29:30.989Z,1014.52
2018-08-12T01:30:30.925Z,1014.52
2018-08-12T01:31:30.881Z,1014.46
2018-08-12T01:32:30.863Z,1014.51
2018-08-12T01:33:30.799Z,1014.48
2018-08-12T01:34:30.783Z,1014.52
2018-08-12T01:35:30.727Z,1014.49
2018-08-12T01:36:30.694Z,1014.49
2018-08-12T01:37:30.638Z,1014.48
2018-08-12T01:38:30.620Z,1014.48
2018-08-12T01:39:30.594Z,1014.51
2018-08-12T01:40:30.534Z,1014.48
2018-08-12T01:41:30.503Z,1014.47
2018-08-12T01:42:30.447Z,1014.48
2018-08-12T01:43:30.402Z,1014.48
2018-08-12T01:44:30.388Z,1014.48
2018-08-12T01:45:30.325Z,1014.49
2018-08-12T01:46:30.307Z,1014.47
2018-08-12T01:47:30.252Z,1014.46
2018-08-12T01:48:30.212Z,1014.47
2018-08-12T01:49:30.175Z,1014.44
2018-08-12T01:50:30.161Z,1014.45
2018-08-12T01:51:30.103Z,1014.44
2018-08-12T01:52:30.050Z,1014.44
2018-08-12T01:53:30.026Z,1014.47
2018-08-12T01:54:29.978Z,1014.46
2018-08-12T01:55:29.950Z,1014.40
2018-08-12T01:56:29.892Z,1014.43
2018-08-12T01:57:29.865Z,1014.40
2018-08-12T01:58:29.809Z,1014.36
2018-08-12T01:59:29.776Z,1014.40
2018-08-12T02:00:29.768Z,1014.36
2018-08-12T02:01:29.701Z,1014.37
2018-08-12T02:02:29.658Z,1014.34
2018-08-12T02:03:29.614Z,1014.29
2018-08-12T02:04:38.905Z,1014.29
2018-08-12T02:05:29.547Z,1014.30
2018-08-12T02:06:29.529Z,1014.27
2018-08-12T02:07:29.459Z,1014.29
2018-08-12T02:08:29.412Z,1014.27
2018-08-12T02:09:29.393Z,1014.26
2018-08-12T02:10:29.347Z,1014.23
2018-08-12T02:11:29.323Z,1014.24
2018-08-12T02:12:29.268Z,1014.21
2018-08-12T02:13:29.217Z,1014.22
2018-08-12T02:14:29.180Z,1014.19
2018-08-12T02:15:29.147Z,1014.20
2018-08-12T02:16:29.125Z,1014.18
2018-08-12T02:17:29.069Z,1014.14
2018-08-12T02:18:29.032Z,1014.14
2018-08-12T02:19:28.996Z,1014.15
2018-08-12T02:20:28.954Z,1014.13
2018-08-12T02:21:28.931Z,1014.08
2018-08-12T02:22:28.869Z,1014.06
2018-08-12T02:23:28.834Z,1014.06
2018-08-12T02:24:38.945Z,1014.05
2018-08-12T02:25:28.748Z,1014.05
2018-08-12T02:26:28.739Z,1014.00
2018-08-12T02:27:28.679Z,1014.04
2018-08-12T02:28:28.643Z,1014.00
2018-08-12T02:29:28.597Z,1013.99
2018-08-12T02:30:28.557Z,1013.96
2018-08-12T02:31:28.523Z,1013.95
2018-08-12T02:32:28.500Z,1013.94
2018-08-12T02:33:28.432Z,1013.93
2018-08-12T02:34:28.393Z,1013.94
2018-08-12T02:35:28.364Z,1013.96
2018-08-12T02:36:28.353Z,1013.94
2018-08-12T02:37:28.273Z,1013.89
2018-08-12T02:38:28.239Z,1013.92
2018-08-12T02:39:28.205Z,1013.91
2018-08-12T02:40:28.164Z,1013.89
2018-08-12T02:41:28.144Z,1013.85
2018-08-12T02:42:28.111Z,1013.84
2018-08-12T02:43:28.043Z,1013.83
2018-08-12T02:44:38.486Z,1013.83
2018-08-12T02:45:27.968Z,1013.77
2018-08-12T02:46:27.929Z,1013.78
2018-08-12T02:47:27.917Z,1013.80
2018-08-12T02:48:27.856Z,1013.75
2018-08-12T02:49:27.805Z,1013.76
2018-08-12T02:50:27.767Z,1013.76
2018-08-12T02:51:27.731Z,1013.72
2018-08-12T02:52:27.734Z,1013.72
2018-08-12T02:53:27.646Z,1013.73
2018-08-12T02:54:27.606Z,1013.73
2018-08-12T02:55:27.571Z,1013.69
2018-08-12T02:56:27.531Z,1013.63
2018-08-12T02:57:27.533Z,1013.66
2018-08-12T02:58:27.460Z,1013.63
2018-08-12T02:59:27.417Z,1013.62
2018-08-12T03:00:27.379Z,1013.59
2018-08-12T03:01:27.334Z,1013.55
2018-08-12T03:02:27.291Z,1013.54
2018-08-12T03:03:27.278Z,1013.53
2018-08-12T03:04:27.212Z,1013.55
2018-08-12T03:05:27.183Z,1013.51
2018-08-12T03:06:27.140Z,1013.53
2018-08-12T03:07:27.098Z,1013.58
2018-08-12T03:08:27.088Z,1013.57
2018-08-12T03:09:27.029Z,1013.55
2018-08-12T03:10:26.981Z,1013.53
2018-08-12T03:11:26.947Z,1013.52
2018-08-12T03:12:26.910Z,1013.48
2018-08-12T03:13:26.888Z,1013.45
2018-08-12T03:14:26.818Z,1013.46
2018-08-12T03:15:26.781Z,1013.47
2018-08-12T03:16:26.739Z,1013.43
2018-08-12T03:17:26.705Z,1013.51
2018-08-12T03:18:26.678Z,1013.47
2018-08-12T03:19:26.674Z,1013.42
2018-08-12T03:20:26.593Z,1013.47
2018-08-12T03:21:26.550Z,1013.45
2018-08-12T03:22:35.063Z,1013.44
2018-08-12T03:23:34.556Z,1013.40
2018-08-12T03:24:26.449Z,1013.37
2018-08-12T03:25:26.395Z,1013.38
2018-08-12T03:26:26.355Z,1013.38
2018-08-12T03:27:26.316Z,1013.33
2018-08-12T03:28:26.278Z,1013.34
2018-08-12T03:29:26.254Z,1013.33
2018-08-12T03:30:26.254Z,1013.28
2018-08-12T03:31:26.149Z,1013.28
2018-08-12T03:32:26.112Z,1013.27
2018-08-12T03:33:26.080Z,1013.27
2018-08-12T03:34:26.067Z,1013.27
2018-08-12T03:35:26.009Z,1013.27
2018-08-12T03:36:25.952Z,1013.26
2018-08-12T03:37:25.919Z,1013.21
2018-08-12T03:38:25.880Z,1013.21
2018-08-12T03:39:25.840Z,1013.21
2018-08-12T03:40:25.826Z,1013.21
2018-08-12T03:41:25.759Z,1013.22
2018-08-12T03:42:36.092Z,1013.20
2018-08-12T03:43:25.684Z,1013.21
2018-08-12T03:44:25.644Z,1013.19
2018-08-12T03:45:25.625Z,1013.19
2018-08-12T03:46:25.562Z,1013.18
2018-08-12T03:47:25.524Z,1013.17
2018-08-12T03:48:25.485Z,1013.16
2018-08-12T03:49:25.445Z,1013.17
2018-08-12T03:50:25.432Z,1013.14
2018-08-12T03:51:25.367Z,1013.16
2018-08-12T03:52:25.324Z,1013.16
2018-08-12T03:53:25.282Z,1013.18
2018-08-12T03:54:25.247Z,1013.21
2018-08-12T03:55:25.209Z,1013.19
2018-08-12T03:56:25.191Z,1013.16
2018-08-12T03:57:25.132Z,1013.14
2018-08-12T03:58:25.091Z,1013.13
2018-08-12T03:59:25.044Z,1013.14
2018-08-12T04:00:25.008Z,1013.14
2018-08-12T04:01:24.984Z,1013.17
2018-08-12T04:02:35.139Z,1013.14
2018-08-12T04:03:24.893Z,1013.14
2018-08-12T04:04:24.853Z,1013.13
2018-08-12T04:05:24.815Z,1013.15
2018-08-12T04:06:24.801Z,1013.15
2018-08-12T04:07:24.747Z,1013.12
2018-08-12T04:08:24.698Z,1013.16
2018-08-12T04:09:24.650Z,1013.12
2018-08-12T04:10:24.616Z,1013.12
2018-08-12T04:11:24.577Z,1013.15
2018-08-12T04:12:24.553Z,1013.14
2018-08-12T04:13:24.504Z,1013.14
2018-08-12T04:14:24.462Z,1013.14
2018-08-12T04:15:24.420Z,1013.14
2018-08-12T04:16:24.377Z,1013.13
2018-08-12T04:17:24.362Z,1013.11
2018-08-12T04:18:24.295Z,1013.11
2018-08-12T04:19:24.261Z,1013.13
2018-08-12T04:20:24.223Z,1013.16
2018-08-12T04:21:24.181Z,1013.14
2018-08-12T04:22:24.165Z,1013.14
2018-08-12T04:23:24.107Z,1013.11
2018-08-12T04:24:24.059Z,1013.09
2018-08-12T04:25:24.024Z,1013.09
2018-08-12T04:26:23.984Z,1013.08
2018-08-12T04:27:23.971Z,1013.09
2018-08-12T04:28:23.905Z,1013.09
2018-08-12T04:29:23.858Z,1013.05
2018-08-12T04:30:23.826Z,1013.05
2018-08-12T04:31:23.791Z,1013.04
2018-08-12T04:32:23.738Z,1013.02
2018-08-12T04:33:23.726Z,1013.01
2018-08-12T04:34:23.670Z,1013.00
2018-08-12T04:35:23.620Z,1012.99
2018-08-12T04:36:23.581Z,1012.96
2018-08-12T04:37:23.550Z,1012.97
2018-08-12T04:38:23.536Z,1012.95
2018-08-12T04:39:23.468Z,1012.95
2018-08-12T04:40:23.435Z,1012.95
2018-08-12T04:41:33.752Z,1012.93
2018-08-12T04:42:23.342Z,1012.95
2018-08-12T04:43:23.357Z,1012.91
2018-08-12T04:44:23.278Z,1012.90
2018-08-12T04:45:23.233Z,1012.87
2018-08-12T04:46:23.201Z,1012.90
2018-08-12T04:47:23.147Z,1012.90
2018-08-12T04:48:23.107Z,1012.89
2018-08-12T04:49:23.124Z,1012.88
2018-08-12T04:50:23.039Z,1012.90
2018-08-12T04:51:22.993Z,1012.92
2018-08-12T04:52:22.955Z,1012.92
2018-08-12T04:53:22.911Z,1012.92
2018-08-12T04:54:22.893Z,1012.96
2018-08-12T04:55:22.838Z,1012.98
2018-08-12T04:56:22.803Z,1012.91
2018-08-12T04:57:22.760Z,1012.89
2018-08-12T04:58:22.729Z,1012.88
2018-08-12T04:59:22.699Z,1012.88
2018-08-12T05:00:22.642Z,1012.91
2018-08-12T05:01:33.743Z,1012.90
2018-08-12T05:02:22.574Z,1012.91
2018-08-12T05:03:22.533Z,1012.90
2018-08-12T05:04:22.512Z,1012.89
2018-08-12T05:05:22.452Z,1012.90
2018-08-12T05:06:22.421Z,1012.92
2018-08-12T05:07:22.370Z,1012.95
2018-08-12T05:08:22.348Z,1012.92
2018-08-12T05:09:22.292Z,1012.93
2018-08-12T05:10:22.271Z,1012.92
2018-08-12T05:11:22.212Z,1012.94
2018-08-12T05:12:22.190Z,1012.97
2018-08-12T05:13:22.146Z,1013.03
2018-08-12T05:14:22.107Z,1013.02
2018-08-12T05:15:22.089Z,1013.04
2018-08-12T05:16:22.025Z,1013.09
2018-08-12T05:17:21.977Z,1013.17
2018-08-12T05:18:21.937Z,1013.14
2018-08-12T05:19:21.918Z,1013.18
2018-08-12T05:20:21.901Z,1013.18
2018-08-12T05:21:32.281Z,1013.13
2018-08-12T05:22:21.785Z,1013.16
2018-08-12T05:23:21.754Z,1013.15
2018-08-12T05:24:21.732Z,1013.15
2018-08-12T05:25:21.681Z,1013.19
2018-08-12T05:26:21.665Z,1013.14
2018-08-12T05:27:21.597Z,1013.15
2018-08-12T05:28:21.564Z,1013.12
2018-08-12T05:29:21.519Z,1013.17
2018-08-12T05:30:21.498Z,1013.14
2018-08-12T05:31:21.476Z,1013.13
2018-08-12T05:32:21.423Z,1013.15
2018-08-12T05:33:21.376Z,1013.14
2018-08-12T05:34:21.342Z,1013.16
2018-08-12T05:35:21.349Z,1013.15
2018-08-12T05:36:21.304Z,1013.18
2018-08-12T05:37:21.236Z,1013.15
2018-08-12T05:38:21.200Z,1013.12
2018-08-12T05:39:21.158Z,1013.06
2018-08-12T05:40:21.125Z,1013.07
2018-08-12T05:41:30.827Z,1013.07
2018-08-12T05:42:21.060Z,1013.04
2018-08-12T05:43:21.019Z,1013.05
2018-08-12T05:44:20.983Z,1013.05
2018-08-12T05:45:20.951Z,1013.09
2018-08-12T05:46:20.912Z,1013.12
2018-08-12T05:47:20.903Z,1013.08
2018-08-12T05:48:20.842Z,1013.10
2018-08-12T05:49:20.798Z,1013.09
2018-08-12T05:50:20.765Z,1013.09
2018-08-12T05:51:20.771Z,1013.13
2018-08-12T05:52:20.713Z,1013.15
2018-08-12T05:53:20.662Z,1013.13
2018-08-12T05:54:20.629Z,1013.18
2018-08-12T05:55:20.594Z,1013.18
2018-08-12T05:56:20.565Z,1013.25
2018-08-12T05:57:20.579Z,1013.23
2018-08-12T05:58:20.479Z,1013.20
2018-08-12T05:59:20.457Z,1013.23
2018-08-12T06:00:30.840Z,1013.12
2018-08-12T06:01:20.376Z,1013.19
2018-08-12T06:02:20.350Z,1013.12
2018-08-12T06:03:20.346Z,1013.06
2018-08-12T06:04:20.290Z,1012.98
2018-08-12T06:05:20.249Z,1013.02
2018-08-12T06:06:20.211Z,1013.02
2018-08-12T06:07:20.180Z,1012.94
2018-08-12T06:08:20.218Z,1012.94
2018-08-12T06:09:20.100Z,1012.95
2018-08-12T06:10:20.069Z,1013.07
2018-08-12T06:11:20.048Z,1013.05
2018-08-12T06:12:20.004Z,1012.95
2018-08-12T06:13:19.999Z,1012.89
2018-08-12T06:14:19.936Z,1012.90
2018-08-12T06:15:19.896Z,1012.86
2018-08-12T06:16:19.862Z,1012.85
2018-08-12T06:17:19.874Z,1012.88
2018-08-12T06:18:19.799Z,1012.88
2018-08-12T06:19:19.777Z,1012.87
2018-08-12T06:20:29.886Z,1012.87
2018-08-12T06:21:19.692Z,1012.83
2018-08-12T06:22:19.677Z,1012.80
2018-08-12T06:23:19.625Z,1012.80
2018-08-12T06:24:19.612Z,1012.82
2018-08-12T06:25:19.553Z,1012.73
2018-08-12T06:26:19.515Z,1012.74
2018-08-12T06:27:19.491Z,1012.74
2018-08-12T06:28:19.453Z,1012.71
2018-08-12T06:29:19.441Z,1012.76
2018-08-12T06:30:19.381Z,1012.73
2018-08-12T06:31:19.337Z,1012.69
2018-08-12T06:32:19.303Z,1012.71
2018-08-12T06:33:19.286Z,1012.70
2018-08-12T06:34:19.310Z,1012.67
2018-08-12T06:35:19.202Z,1012.70
2018-08-12T06:36:19.165Z,1012.69
2018-08-12T06:37:19.143Z,1012.70
2018-08-12T06:38:19.088Z,1012.73
2018-08-12T06:39:19.051Z,1012.67
2018-08-12T06:40:19.037Z,1012.71
2018-08-12T06:41:18.985Z,1012.73
2018-08-12T06:42:18.945Z,1012.72
2018-08-12T06:43:18.918Z,1012.80
2018-08-12T06:44:18.886Z,1012.92
2018-08-12T06:45:18.862Z,1013.25
2018-08-12T06:46:18.850Z,1013.51
2018-08-12T06:47:18.773Z,1013.54
2018-08-12T06:48:18.743Z,1013.53
2018-08-12T06:49:18.687Z,1013.46
2018-08-12T06:50:18.687Z,1013.46
2018-08-12T06:51:18.645Z,1013.41
2018-08-12T06:52:18.584Z,1013.48
2018-08-12T06:53:18.557Z,1013.55
2018-08-12T06:54:18.519Z,1013.56
2018-08-12T06:55:18.485Z,1013.55
2018-08-12T06:56:18.474Z,1013.58
2018-08-12T06:57:18.424Z,1013.60
2018-08-12T06:58:18.384Z,1013.61
2018-08-12T06:59:18.342Z,1013.54
2018-08-12T07:00:18.319Z,1013.74
2018-08-12T07:01:18.313Z,1013.73
2018-08-12T07:02:18.257Z,1013.68
2018-08-12T07:03:18.210Z,1013.67
2018-08-12T07:04:18.186Z,1013.77
2018-08-12T07:05:18.149Z,1013.81
2018-08-12T07:06:18.147Z,1013.71
2018-08-12T07:07:18.093Z,1013.67
2018-08-12T07:08:18.094Z,1013.81
2018-08-12T07:09:18.018Z,1013.70
2018-08-12T07:10:18.061Z,1013.28
2018-08-12T07:11:17.973Z,1013.12
2018-08-12T07:12:17.933Z,1013.78
2018-08-12T07:13:17.890Z,1014.02
2018-08-12T07:14:17.872Z,1014.19
2018-08-12T07:15:17.823Z,1014.43
2018-08-12T07:16:17.796Z,1014.39
2018-08-12T07:17:17.819Z,1014.24
2018-08-12T07:18:17.721Z,1014.03
2018-08-12T07:19:27.936Z,1013.31
2018-08-12T07:20:17.657Z,1013.15
2018-08-12T07:21:17.627Z,1013.32
2018-08-12T07:22:17.625Z,1014.10
2018-08-12T07:23:17.573Z,1013.68
2018-08-12T07:24:17.538Z,1013.86
2018-08-12T07:25:17.504Z,1013.68
2018-08-12T07:26:17.470Z,1013.76
2018-08-12T07:27:17.429Z,1014.08
2018-08-12T07:28:17.432Z,1014.12
2018-08-12T07:29:17.367Z,1013.93
2018-08-12T07:30:17.339Z,1013.97
2018-08-12T07:31:17.319Z,1013.85
2018-08-12T07:32:17.280Z,1013.82
2018-08-12T07:33:17.260Z,1013.82
2018-08-12T07:34:17.204Z,1013.75
2018-08-12T07:35:17.180Z,1013.65
2018-08-12T07:36:17.146Z,1013.87
2018-08-12T07:37:17.137Z,1013.88
2018-08-12T07:38:17.109Z,1013.31
2018-08-12T07:39:27.475Z,1013.42
2018-08-12T07:40:17.017Z,1013.54
2018-08-12T07:41:16.995Z,1013.58
2018-08-12T07:42:16.959Z,1013.58
2018-08-12T07:43:16.950Z,1013.32
2018-08-12T07:44:16.898Z,1013.21
2018-08-12T07:45:16.862Z,1013.49
2018-08-12T07:46:16.828Z,1013.37
2018-08-12T07:47:16.806Z,1013.38
2018-08-12T07:48:16.791Z,1013.44
2018-08-12T07:49:16.745Z,1013.44
2018-08-12T07:50:16.706Z,1013.34
2018-08-12T07:51:16.672Z,1013.28
2018-08-12T07:52:16.640Z,1013.32
2018-08-12T07:53:16.644Z,1013.36
2018-08-12T07:54:16.593Z,1013.40
2018-08-12T07:55:19.491Z,1013.32
2018-08-12T07:56:16.528Z,1013.21
2018-08-12T07:57:16.485Z,1013.17
2018-08-12T07:58:26.030Z,1013.17
2018-08-12T07:59:16.430Z,1013.18
2018-08-12T08:00:16.400Z,1013.21
2018-08-12T08:01:16.361Z,1013.19
2018-08-12T08:02:16.330Z,1013.17
2018-08-12T08:03:16.304Z,1013.24
2018-08-12T08:04:16.296Z,1013.21
2018-08-12T08:05:16.244Z,1013.14
2018-08-12T08:06:16.239Z,1013.13
2018-08-12T08:07:16.175Z,1013.16
2018-08-12T08:08:16.144Z,1012.88
2018-08-12T08:09:16.158Z,1012.95
2018-08-12T08:10:16.091Z,1012.86
2018-08-12T08:11:16.064Z,1013.12
2018-08-12T08:12:16.020Z,1012.99
2018-08-12T08:13:15.991Z,1012.83
2018-08-12T08:14:15.987Z,1012.87
2018-08-12T08:15:15.935Z,1012.83
2018-08-12T08:16:15.906Z,1012.80
2018-08-12T08:17:15.872Z,1012.71
2018-08-12T08:18:26.062Z,1013.06
2018-08-12T08:19:15.842Z,1013.00
2018-08-12T08:20:15.786Z,1012.81
2018-08-12T08:21:15.743Z,1012.90
2018-08-12T08:22:15.714Z,1012.83
2018-08-12T08:23:15.684Z,1013.01
2018-08-12T08:24:15.683Z,1012.98
2018-08-12T08:25:15.713Z,1012.82
2018-08-12T08:26:15.593Z,1012.82
2018-08-12T08:27:15.564Z,1013.02
2018-08-12T08:28:15.533Z,1013.10
2018-08-12T08:29:15.496Z,1013.19
2018-08-12T08:30:15.483Z,1013.13
2018-08-12T08:31:15.468Z,1013.07
2018-08-12T08:32:15.508Z,1013.04
2018-08-12T08:33:15.370Z,1012.94
2018-08-12T08:34:15.335Z,1012.84
2018-08-12T08:35:15.333Z,1012.95
2018-08-12T08:36:15.275Z,1012.98
2018-08-12T08:37:15.249Z,1013.02
2018-08-12T08:38:15.221Z,1013.00
2018-08-12T08:39:15.190Z,1012.91
2018-08-12T08:40:15.188Z,1012.91
2018-08-12T08:41:15.120Z,1012.93
2018-08-12T08:42:15.092Z,1012.90
2018-08-12T08:43:15.060Z,1012.86
2018-08-12T08:44:15.032Z,1012.91
2018-08-12T08:45:15.045Z,1013.03
2018-08-12T08:46:14.979Z,1013.07
2018-08-12T08:47:14.937Z,1013.01
2018-08-12T08:48:14.915Z,1013.00
2018-08-12T08:49:14.885Z,1012.98
2018-08-12T08:50:14.856Z,1012.96
2018-08-12T08:51:14.848Z,1012.93
2018-08-12T08:52:14.795Z,1012.92
2018-08-12T08:53:14.762Z,1012.96
2018-08-12T08:54:14.733Z,1012.95
2018-08-12T08:55:14.703Z,1012.96
2018-08-12T08:56:14.692Z,1012.94
2018-08-12T08:57:14.647Z,1012.94
2018-08-12T08:58:25.114Z,1012.95
2018-08-12T08:59:14.589Z,1012.89
2018-08-12T09:00:14.553Z,1012.89
2018-08-12T09:01:14.604Z,1012.84
2018-08-12T09:02:14.502Z,1012.86
2018-08-12T09:03:14.473Z,1012.88
2018-08-12T09:04:14.439Z,1012.85
2018-08-12T09:05:14.408Z,1012.79
2018-08-12T09:06:14.384Z,1012.74
2018-08-12T09:07:14.381Z,1012.74
2018-08-12T09:08:14.442Z,1012.75
2018-08-12T09:09:14.657Z,1012.67
2018-08-12T09:10:14.420Z,1012.71
2018-08-12T09:11:14.238Z,1012.73
2018-08-12T09:12:14.232Z,1012.68
2018-08-12T09:13:14.180Z,1012.72
2018-08-12T09:14:14.156Z,1012.66
2018-08-12T09:15:14.130Z,1012.67
2018-08-12T09:16:14.103Z,1012.68
2018-08-12T09:17:23.680Z,1012.68
2018-08-12T09:18:14.165Z,1012.63
2018-08-12T09:19:14.024Z,1012.62
2018-08-12T09:20:13.991Z,1012.56
2018-08-12T09:21:13.957Z,1012.59
2018-08-12T09:22:13.952Z,1012.59
2018-08-12T09:23:13.896Z,1012.68
2018-08-12T09:24:13.958Z,1012.70
2018-08-12T09:25:13.848Z,1012.71
2018-08-12T09:26:13.824Z,1012.67
2018-08-12T09:27:13.794Z,1012.64
2018-08-12T09:28:13.837Z,1012.56
2018-08-12T09:29:13.728Z,1012.64
2018-08-12T09:30:13.707Z,1012.61
2018-08-12T09:31:13.684Z,1012.55
2018-08-12T09:32:13.651Z,1012.54
2018-08-12T09:33:13.644Z,1012.50
2018-08-12T09:34:13.589Z,1012.55
2018-08-12T09:35:13.564Z,1012.46
2018-08-12T09:36:13.542Z,1012.41
2018-08-12T09:37:23.698Z,1012.47
2018-08-12T09:38:13.523Z,1012.44
2018-08-12T09:39:13.457Z,1012.35
2018-08-12T09:40:13.428Z,1012.30
2018-08-12T09:41:13.397Z,1012.33
2018-08-12T09:42:13.373Z,1012.36
2018-08-12T09:43:13.448Z,1012.43
2018-08-12T09:44:13.347Z,1012.34
2018-08-12T09:45:13.289Z,1012.17
2018-08-12T09:46:13.265Z,1012.29
2018-08-12T09:47:13.243Z,1012.29
2018-08-12T09:48:13.213Z,1012.24
2018-08-12T09:49:13.207Z,1012.27
2018-08-12T09:50:13.157Z,1012.32
2018-08-12T09:51:13.125Z,1012.29
2018-08-12T09:52:13.097Z,1012.27
2018-08-12T09:53:13.066Z,1012.27
2018-08-12T09:54:13.062Z,1012.21
2018-08-12T09:55:13.018Z,1012.26
2018-08-12T09:56:12.990Z,1012.21
2018-08-12T09:57:23.247Z,1012.15
2018-08-12T09:58:12.933Z,1012.18
2018-08-12T09:59:12.937Z,1012.16
2018-08-12T10:00:12.889Z,1012.16
2018-08-12T10:01:12.843Z,1012.22
2018-08-12T10:02:12.815Z,1012.24
2018-08-12T10:03:12.788Z,1012.26
2018-08-12T10:04:12.761Z,1012.27
2018-08-12T10:05:12.762Z,1012.25
2018-08-12T10:06:12.716Z,1012.30
2018-08-12T10:07:12.687Z,1012.22
2018-08-12T10:08:12.656Z,1012.11
2018-08-12T10:09:12.622Z,1012.09
2018-08-12T10:10:12.622Z,1012.18
2018-08-12T10:11:12.569Z,1012.16
2018-08-12T10:12:12.541Z,1012.14
2018-08-12T10:13:12.527Z,1012.03
2018-08-12T10:14:12.495Z,1012.08
2018-08-12T10:15:12.459Z,1012.08
2018-08-12T10:16:12.457Z,1012.04
2018-08-12T10:17:12.414Z,1012.02
2018-08-12T10:18:12.383Z,1011.99
2018-08-12T10:19:12.356Z,1012.05
2018-08-12T10:20:12.329Z,1012.06
2018-08-12T10:21:12.316Z,1012.20
2018-08-12T10:22:12.271Z,1012.16
2018-08-12T10:23:12.245Z,1012.06
2018-08-12T10:24:12.213Z,1011.94
2018-08-12T10:25:12.193Z,1012.03
2018-08-12T10:26:12.194Z,1012.08
2018-08-12T10:27:12.141Z,1012.05
2018-08-12T10:28:12.119Z,1011.82
2018-08-12T10:29:12.128Z,1011.81
2018-08-12T10:30:12.055Z,1011.71
2018-08-12T10:31:12.065Z,1011.63
2018-08-12T10:32:12.008Z,1011.63
2018-08-12T10:33:11.975Z,1011.64
2018-08-12T10:34:11.947Z,1011.69
2018-08-12T10:35:11.922Z,1011.74
2018-08-12T10:36:11.895Z,1011.79
2018-08-12T10:37:11.895Z,1011.82
2018-08-12T10:38:11.846Z,1011.79
2018-08-12T10:39:11.821Z,1011.77
2018-08-12T10:40:11.794Z,1011.83
2018-08-12T10:41:11.759Z,1011.80
2018-08-12T10:42:11.757Z,1011.68
2018-08-12T10:43:11.707Z,1011.66
2018-08-12T10:44:11.686Z,1011.71
2018-08-12T10:45:11.656Z,1011.61
2018-08-12T10:46:11.636Z,1011.63
2018-08-12T10:47:11.623Z,1011.65
2018-08-12T10:48:11.567Z,1011.67
2018-08-12T10:49:11.553Z,1011.66
2018-08-12T10:50:11.523Z,1011.58
2018-08-12T10:51:11.497Z,1011.50
2018-08-12T10:52:11.472Z,1011.67
2018-08-12T10:53:11.452Z,1011.64
2018-08-12T10:54:11.405Z,1011.55
2018-08-12T10:55:11.384Z,1011.53
2018-08-12T10:56:20.825Z,1011.49
2018-08-12T10:57:11.335Z,1011.51
2018-08-12T10:58:11.331Z,1011.28
2018-08-12T10:59:11.306Z,1011.37
2018-08-12T11:00:11.244Z,1011.63
2018-08-12T11:01:11.227Z,1011.60
2018-08-12T11:02:11.198Z,1011.55
2018-08-12T11:03:11.210Z,1011.41
2018-08-12T11:04:11.138Z,1011.42
2018-08-12T11:05:11.108Z,1011.31
2018-08-12T11:06:11.109Z,1011.41
2018-08-12T11:07:11.118Z,1011.41
2018-08-12T11:08:11.040Z,1011.37
2018-08-12T11:09:11.031Z,1011.20
2018-08-12T11:10:10.985Z,1011.19
2018-08-12T11:11:10.948Z,1011.30
2018-08-12T11:12:10.922Z,1011.28
2018-08-12T11:13:10.896Z,1011.25
2018-08-12T11:14:10.889Z,1011.31
2018-08-12T11:15:10.849Z,1011.24
2018-08-12T11:16:21.352Z,1011.20
2018-08-12T11:17:10.793Z,1011.20
2018-08-12T11:18:10.795Z,1011.15
2018-08-12T11:19:10.773Z,1011.11
2018-08-12T11:20:10.719Z,1011.13
2018-08-12T11:21:10.686Z,1011.16
2018-08-12T11:22:10.659Z,1011.10
2018-08-12T11:23:10.632Z,1011.16
2018-08-12T11:24:10.610Z,1011.13
2018-08-12T11:25:10.617Z,1011.12
2018-08-12T11:26:10.569Z,1011.13
2018-08-12T11:27:10.540Z,1011.03
2018-08-12T11:28:10.516Z,1011.01
2018-08-12T11:29:10.482Z,1011.00
2018-08-12T11:30:10.477Z,1010.96
2018-08-12T11:31:10.438Z,1010.90
2018-08-12T11:32:10.418Z,1010.89
2018-08-12T11:33:10.382Z,1010.84
2018-08-12T11:34:10.358Z,1010.92
2018-08-12T11:35:10.360Z,1010.86
2018-08-12T11:36:10.307Z,1010.88
2018-08-12T11:37:10.285Z,1010.90
2018-08-12T11:38:10.261Z,1010.96
2018-08-12T11:39:10.238Z,1010.96
2018-08-12T11:40:10.241Z,1010.86
2018-08-12T11:41:10.242Z,1010.85
2018-08-12T11:42:10.145Z,1010.83
2018-08-12T11:43:10.122Z,1010.83
2018-08-12T11:44:10.096Z,1010.80
2018-08-12T11:45:10.071Z,1010.80
2018-08-12T11:46:10.070Z,1010.80
2018-08-12T11:47:10.015Z,1010.75
2018-08-12T11:48:09.989Z,1010.80
2018-08-12T11:49:09.971Z,1010.85
2018-08-12T11:50:09.998Z,1010.82
2018-08-12T11:51:09.939Z,1010.73
2018-08-12T11:52:09.889Z,1010.73
2018-08-12T11:53:09.858Z,1010.54
2018-08-12T11:54:09.832Z,1010.56
2018-08-12T11:55:09.809Z,1010.50
2018-08-12T11:56:09.808Z,1010.61
2018-08-12T11:57:09.761Z,1010.48
2018-08-12T11:58:09.738Z,1010.53
2018-08-12T11:59:09.712Z,1010.44
2018-08-12T12:00:09.687Z,1010.42
2018-08-12T12:01:09.653Z,1010.52
2018-08-12T12:02:09.674Z,1010.58
2018-08-12T12:03:09.609Z,1010.46
2018-08-12T12:04:09.586Z,1010.49
2018-08-12T12:05:09.547Z,1010.41